Latest Weather Observations for Cleve Airport

IDS60801

Issued at 5:35 am CST Wednesday 24 September 2014 (issued every 30 minutes, with the page automatically refreshed every 10 minutes)

About weather observations | Map of weather stations | Latest weather observations for SA | Other Formats
Station Details ID: 018116 Name: CLEVE AERODROME Lat: -33.71 Lon: 136.50 Height: 175.0 m
Data from the previous 72 hours. | See also: Recent months at Cleve Airport
Date/Time
CST
Temp
°C
App
Temp
°C
Dew
Point
Rel
Hum
%
Delta-T
°C
Wind Press
QNH
hPa
Press
MSL
hPa
Rain
since 9 am
mm
Dir
 
Spd
km/h
Gust
km/h
Spd
kts
Gust
kts
24/05:30am 15.2 11.6 9.8 70 2.8 NW 19 28 10 15 1013.1 - 0.2
24/05:00am 15.4 12.5 9.5 68 3.1 NW 15 22 8 12 1012.9 - 0.2
24/04:30am 15.6 13.4 9.3 66 3.3 NNW 11 19 6 10 1012.9 - 0.2
24/04:00am 16.2 12.5 9.6 65 3.5 NNW 19 28 10 15 1012.4 - 0.2
24/03:30am 17.2 13.7 8.9 58 4.3 WNW 17 24 9 13 1012.1 - 0.2
24/03:00am 16.9 12.7 9.6 62 3.9 NNW 22 32 12 17 1012.0 1012.0 0.2
24/02:30am 16.0 11.1 11.2 73 2.6 N 28 39 15 21 1012.4 - 0.2
24/02:00am 16.1 12.1 11.7 75 2.4 N 24 33 13 18 1012.7 - 0.2
24/01:30am 17.0 12.4 11.1 68 3.2 N 26 37 14 20 1012.7 - 0.2
24/01:00am 17.3 12.3 11.1 67 3.4 N 28 39 15 21 1013.2 - 0.2
24/12:30am 17.2 11.5 11.2 68 3.3 N 32 41 17 22 1013.6 - 0.2
24/12:00am 17.4 12.4 11.0 66 3.5 N 28 41 15 22 1013.9 1013.8 0.2
 
Date/Time
CST
Temp
°C
App
Temp
°C
Dew
Point
Rel
Hum
%
Delta-T
°C
Wind Press
QNH
hPa
Press
MSL
hPa
Rain
since 9 am
mm
Dir
 
Spd
km/h
Gust
km/h
Spd
kts
Gust
kts
23/11:30pm 17.9 13.2 10.5 62 4.0 N 26 33 14 18 1014.2 - 0.2
23/11:00pm 17.3 11.9 10.9 66 3.5 N 30 39 16 21 1014.6 - 0.2
23/10:30pm 17.1 11.1 10.9 67 3.4 N 33 52 18 28 1014.7 - 0.2
23/10:26pm 17.9 12.0 10.5 62 4.0 N 32 52 17 28 1014.4 - 0.2
23/10:00pm 19.1 12.8 9.0 52 5.3 NNE 32 43 17 23 1013.5 - 0.2
23/09:30pm 19.7 13.2 8.1 47 6.0 N 32 44 17 24 1013.6 - 0.2
23/09:00pm 19.1 13.8 8.4 50 5.6 NNE 26 35 14 19 1013.7 1013.6 0.2
23/08:30pm 19.6 13.6 8.6 49 5.8 NNE 30 43 16 23 1013.6 - 0.2
23/08:00pm 19.8 14.8 7.9 46 6.2 NNE 24 33 13 18 1013.7 - 0.2
23/07:30pm 19.6 15.8 7.4 45 6.3 NNE 17 20 9 11 1013.4 - 0.2
23/07:00pm 19.9 15.8 7.9 46 6.2 NNE 19 24 10 13 1013.2 - 0.2
23/06:30pm 19.6 16.3 8.0 47 6.0 E 15 19 8 10 1013.1 - 0.2
23/06:00pm 20.4 16.1 7.7 44 6.6 NNE 20 32 11 17 1013.2 1013.1 0.2
23/05:30pm 21.3 17.0 7.9 42 7.0 NNE 20 30 11 16 1013.0 - 0.2
23/05:00pm 21.5 17.7 9.7 47 6.4 ENE 20 24 11 13 1013.2 - 0.2
23/04:30pm 21.6 19.0 7.8 41 7.2 N 11 19 6 10 1013.1 - 0.2
23/04:00pm 20.7 19.6 11.9 57 4.9 NNW 9 15 5 8 1013.5 - 0.2
23/03:30pm 19.2 15.3 12.0 63 4.0 N 24 41 13 22 1013.6 - 0.0
23/03:00pm 23.7 19.0 7.8 36 8.4 N 22 33 12 18 1013.5 1013.4 0.0
23/02:30pm 26.2 20.9 6.8 29 10.3 N 24 39 13 21 1013.6 - 0.0
23/02:00pm 25.7 20.7 6.3 29 10.1 N 22 35 12 19 1014.1 - 0.0
23/01:30pm 25.2 20.2 6.4 30 9.8 N 22 30 12 16 1014.6 - 0.0
23/01:00pm 24.8 19.8 6.5 31 9.6 N 22 33 12 18 1015.0 - 0.0
23/12:30pm 24.4 17.3 5.7 30 9.6 N 32 43 17 23 1015.3 - 0.0
23/12:00pm 25.1 18.8 5.8 29 10.0 N 28 39 15 21 1015.7 1015.7 0.0
23/11:35am 24.1 17.8 5.5 30 9.5 N 28 48 15 26 1016.0 - 0.0
23/11:30am 24.9 19.3 7.1 32 9.4 N 26 43 14 23 1016.1 - 0.0
23/11:08am 24.5 18.6 7.6 34 9.0 NNE 28 50 15 27 1016.3 - 0.0
23/11:00am 24.7 19.6 7.8 34 9.0 NNE 24 39 13 21 1016.5 - 0.0
23/10:30am 24.1 18.3 8.1 36 8.6 N 28 37 15 20 1017.0 - 0.0
23/10:00am 23.2 17.9 8.5 39 7.9 N 26 39 14 21 1017.6 - 0.0
23/09:30am 22.1 15.6 8.2 41 7.4 N 32 44 17 24 1017.8 - 0.0
23/09:00am 20.4 14.5 7.4 43 6.7 N 28 39 15 21 1018.0 1018.0 0.0
23/08:30am 20.0 13.7 7.4 44 6.5 NNE 30 41 16 22 1017.9 - 0.0
23/08:00am 19.2 13.5 6.7 44 6.3 NNE 26 33 14 18 1018.0 - 0.0
23/07:30am 18.0 12.8 5.6 44 6.1 NNE 22 32 12 17 1018.2 - 0.0
23/07:00am 16.4 10.9 3.8 43 5.9 NNE 22 30 12 16 1018.1 - 0.0
23/06:30am 15.1 9.7 2.6 43 5.6 NNE 20 30 11 16 1018.1 - 0.0
23/06:00am 15.3 9.4 1.8 40 6.0 NNE 22 30 12 16 1018.0 1018.0 0.0
23/05:30am 15.3 9.8 0.7 37 6.3 NNE 19 24 10 13 1018.1 - 0.0
23/05:00am 15.7 8.7 -0.5 33 6.9 NNE 26 35 14 19 1017.8 - 0.0
23/04:30am 16.5 9.0 -1.1 30 7.4 NNE 28 37 15 20 1017.9 - 0.0
23/04:00am 15.8 9.3 -2.2 29 7.4 NNE 22 30 12 16 1017.9 - 0.0
23/03:30am 16.7 9.5 -2.4 27 7.9 NNE 26 32 14 17 1018.0 - 0.0
23/03:00am 16.6 10.1 -2.5 27 7.8 NNE 22 28 12 15 1018.4 1018.3 0.0
23/02:30am 16.8 9.9 -2.8 26 8.0 NNE 24 30 13 16 1018.5 - 0.0
23/02:00am 16.9 10.4 -2.7 26 8.0 NNE 22 28 12 15 1018.7 - 0.0
23/01:30am 17.0 10.5 -2.6 26 8.1 NNE 22 32 12 17 1018.9 - 0.0
23/01:00am 16.3 10.2 -2.7 27 7.7 NNE 20 24 11 13 1019.3 - 0.0
23/12:30am 16.9 10.8 -2.7 26 8.0 NNE 20 26 11 14 1019.4 - 0.0
23/12:00am 17.2 10.6 -3.0 25 8.2 NNE 22 28 12 15 1019.5 1019.4 0.0
 
Date/Time
CST
Temp
°C
App
Temp
°C
Dew
Point
Rel
Hum
%
Delta-T
°C
Wind Press
QNH
hPa
Press
MSL
hPa
Rain
since 9 am
mm
Dir
 
Spd
km/h
Gust
km/h
Spd
kts
Gust
kts
22/11:30pm 17.4 10.5 -2.8 25 8.3 NNE 24 28 13 15 1019.7 - 0.0
22/11:00pm 17.7 11.2 -2.6 25 8.4 NNE 22 28 12 15 1019.8 - 0.0
22/10:30pm 16.8 10.7 -2.3 27 7.9 NNE 20 24 11 13 1020.1 - 0.0
22/10:00pm 15.1 9.2 -1.9 31 7.0 NNE 19 20 10 11 1020.2 - 0.0
22/09:30pm 14.8 8.9 -2.6 30 7.0 NNE 19 20 10 11 1020.2 - 0.0
22/09:00pm 15.5 9.4 -3.9 26 7.6 NNE 19 22 10 12 1020.0 1019.9 0.0
22/08:30pm 16.1 10.3 -4.4 24 8.0 NNE 17 20 9 11 1020.1 - 0.0
22/08:00pm 15.8 10.4 -4.2 25 7.8 NNE 15 17 8 9 1019.9 - 0.0
22/07:30pm 16.1 10.3 -4.4 24 8.0 NNE 17 19 9 10 1019.6 - 0.0
22/07:00pm 16.1 10.3 -5.0 23 8.2 NNE 17 19 9 10 1019.5 - 0.0
22/06:30pm 17.4 12.1 -3.4 24 8.4 NNE 15 19 8 10 1019.0 - 0.0
22/06:00pm 21.3 16.7 -4.0 18 10.5 NNE 11 15 6 8 1018.7 1018.6 0.0
22/05:30pm 24.6 18.6 -6.7 12 12.8 N 17 20 9 11 1018.5 - 0.0
22/05:00pm 25.4 19.3 -7.2 11 13.3 N 17 24 9 13 1018.4 - 0.0
22/04:30pm 26.1 18.3 -7.9 10 13.8 NE 26 39 14 21 1018.5 - 0.0
22/04:00pm 26.3 17.6 -9.1 9 14.0 N 30 41 16 22 1018.5 - 0.0
22/03:30pm 26.8 19.3 -8.7 9 14.3 N 24 43 13 23 1018.6 - 0.0
22/03:00pm 27.2 19.0 -8.4 9 14.4 N 28 44 15 24 1018.7 1018.6 0.0
22/02:30pm 27.0 19.1 -8.5 9 14.3 N 26 39 14 21 1019.2 - 0.0
22/02:00pm 26.9 18.3 -8.6 9 14.3 N 30 41 16 22 1019.6 - 0.0
22/01:31pm 26.4 17.3 -9.0 9 14.1 N 32 50 17 27 1020.0 - 0.0
22/01:30pm 26.3 17.0 -9.1 9 14.0 N 33 50 18 27 1020.0 - 0.0
22/01:10pm 26.4 17.7 -9.0 9 14.1 N 30 50 16 27 1020.2 - 0.0
22/01:00pm 26.4 17.3 -9.0 9 14.1 N 32 46 17 25 1020.4 - 0.0
22/12:36pm 25.9 17.3 -8.0 10 13.7 N 30 48 16 26 1020.9 - 0.0
22/12:30pm 26.1 17.1 -7.9 10 13.8 N 32 48 17 26 1021.0 - 0.0
22/12:00pm 25.3 16.0 -9.8 9 13.6 N 33 52 18 28 1021.6 1021.6 0.0
22/11:30am 25.4 17.2 -8.4 10 13.5 N 28 44 15 24 1022.1 - 0.0
22/11:00am 24.1 15.8 -9.4 10 12.9 N 28 39 15 21 1022.5 - 0.0
22/10:30am 23.2 14.8 -5.7 14 11.9 N 30 39 16 21 1023.0 - 0.0
22/10:00am 22.6 15.0 -5.3 15 11.5 N 26 39 14 21 1023.4 - 0.0
22/09:30am 21.9 14.3 -2.0 20 10.4 N 28 37 15 20 1023.7 - 0.0
22/09:00am 20.2 12.5 0.1 26 8.9 N 30 48 16 26 1023.9 1023.9 0.0
22/08:53am 19.3 11.5 -0.7 26 8.7 N 30 48 16 26 1023.9 - 0.0
22/08:30am 18.8 11.0 -1.1 26 8.6 N 30 39 16 21 1024.0 - 0.0
22/08:00am 18.0 10.8 -1.8 26 8.4 N 26 37 14 20 1024.0 - 0.0
22/07:30am 16.5 10.5 -1.6 29 7.6 NNE 20 30 11 16 1024.1 - 0.0
22/07:00am 15.1 9.3 -1.5 32 6.9 NNE 19 26 10 14 1024.1 - 0.0
22/06:30am 12.9 7.5 -1.1 38 5.7 NNE 17 22 9 12 1024.0 - 0.0
22/06:00am 13.4 7.7 -1.0 37 5.9 NNE 19 22 10 12 1024.0 1024.0 0.0
22/05:30am 12.7 8.1 -1.2 38 5.6 NNE 13 17 7 9 1023.8 - 0.0
22/05:00am 14.9 9.5 -1.6 32 6.8 N 17 24 9 13 1023.4 - 0.0
22/04:30am 14.7 8.7 -1.4 33 6.6 NNE 20 26 11 14 1023.2 - 0.0
22/04:00am 16.4 9.6 -1.7 29 7.5 N 24 32 13 17 1023.2 - 0.0
22/03:30am 13.9 8.2 -0.5 37 6.0 NNE 19 20 10 11 1023.4 - 0.0
22/03:00am 13.6 8.4 -0.1 39 5.7 NNE 17 20 9 11 1023.4 1023.4 0.0
22/02:30am 14.3 8.4 -0.6 36 6.2 NNE 20 24 11 13 1023.7 - 0.0
22/02:00am 13.5 8.2 -0.5 38 5.8 NNE 17 22 9 12 1024.0 - 0.0
22/01:30am 13.1 7.3 -1.6 36 5.9 N 19 22 10 12 1024.5 - 0.0
22/01:00am 13.2 7.5 -0.8 38 5.8 NNE 19 22 10 12 1024.8 - 0.0
22/12:30am 12.5 7.3 0.0 42 5.2 NNE 17 19 9 10 1025.1 - 0.0
22/12:00am 13.8 8.3 0.5 40 5.6 NNE 19 20 10 11 1025.4 1025.4 0.0
 
Date/Time
CST
Temp
°C
App
Temp
°C
Dew
Point
Rel
Hum
%
Delta-T
°C
Wind Press
QNH
hPa
Press
MSL
hPa
Rain
since 9 am
mm
Dir
 
Spd
km/h
Gust
km/h
Spd
kts
Gust
kts
21/11:30pm 14.0 8.6 1.3 42 5.5 NNE 19 22 10 12 1025.4 - 0.0
21/11:00pm 14.3 9.4 2.2 44 5.4 NNE 17 22 9 12 1025.4 - 0.0
21/10:30pm 14.5 9.2 2.1 43 5.5 NNE 19 22 10 12 1025.5 - 0.0
21/10:00pm 14.0 9.4 1.6 43 5.4 NNE 15 19 8 10 1025.6 - 0.0
21/09:30pm 12.0 8.5 1.3 48 4.6 ENE 9 15 5 8 1025.7 - 0.0
21/09:00pm 14.1 9.1 1.1 41 5.6 E 17 20 9 11 1025.8 1025.8 0.0
21/08:30pm 12.5 8.2 0.9 45 4.9 E 13 17 7 9 1025.8 - 0.0
21/08:00pm 12.5 8.1 0.3 43 5.1 E 13 13 7 7 1025.8 - 0.0
21/07:30pm 14.8 9.5 -0.5 35 6.4 ENE 17 20 9 11 1025.6 - 0.0
21/07:00pm 13.8 8.9 -0.6 37 6.0 NE 15 19 8 10 1025.5 - 0.0
21/06:30pm 16.2 10.9 -0.5 32 7.1 ENE 17 20 9 11 1025.5 - 0.0
21/06:00pm 19.4 14.0 -1.1 25 8.8 E 17 22 9 12 1025.4 1025.4 0.0
21/05:30pm 21.1 14.4 -1.4 22 9.8 E 24 33 13 18 1025.3 - 0.0
21/05:00pm 22.2 14.8 -0.5 22 10.2 E 28 37 15 20 1025.2 - 0.0
21/04:30pm 23.1 15.4 -0.4 21 10.7 E 30 39 16 21 1025.0 - 0.0
21/04:00pm 23.5 15.3 -0.7 20 11.0 E 32 41 17 22 1024.9 - 0.0
21/03:30pm 24.3 16.6 -0.1 20 11.2 E 30 41 16 22 1024.7 - 0.0
21/03:00pm 24.4 17.1 0.0 20 11.2 ESE 28 35 15 19 1024.9 1024.8 0.0
21/02:52pm 24.7 16.8 0.9 21 11.2 E 32 50 17 27 1024.9 - 0.0
21/02:30pm 24.7 17.4 0.3 20 11.4 E 28 43 15 23 1025.0 - 0.0
21/02:00pm 25.1 18.4 1.3 21 11.3 E 26 43 14 23 1025.3 - 0.0
21/01:30pm 25.5 19.0 -2.1 16 12.4 E 22 32 12 17 1025.6 - 0.0
21/01:00pm 26.1 21.0 -1.7 16 12.6 ENE 15 32 8 17 1025.9 - 0.0
21/12:30pm 24.5 19.4 -2.1 17 11.8 E 15 22 8 12 1026.6 - 0.0
21/12:00pm 24.7 21.2 -1.2 18 11.7 SSE 7 15 4 8 1027.1 1027.1 0.0
21/11:30am 25.0 21.6 -0.9 18 11.8 NNE 7 15 4 8 1027.7 - 0.0
21/11:00am 24.2 19.0 -2.4 17 11.7 NNE 15 22 8 12 1028.0 - 0.0
21/10:30am 23.8 18.4 -1.2 19 11.2 N 17 22 9 12 1028.3 - 0.0
21/10:00am 23.2 16.9 -1.0 20 10.9 N 22 33 12 18 1028.6 - 0.0
21/09:30am 21.7 15.1 -0.3 23 9.9 N 24 32 13 17 1028.7 - 0.0
21/09:00am 20.0 12.1 -1.2 24 9.2 N 30 37 16 20 1028.7 1028.7 0.0
21/08:30am 19.8 12.5 -2.5 22 9.4 N 26 35 14 19 1028.4 - 0.0
21/08:00am 19.0 12.6 -2.0 24 8.9 N 22 28 12 15 1028.2 - 0.0
21/07:30am 17.6 11.5 -2.6 25 8.4 N 20 28 11 15 1027.8 - 0.0
21/07:00am 16.3 10.2 -2.2 28 7.6 N 20 33 11 18 1027.6 - 0.0
21/06:30am 15.8 8.9 -2.6 28 7.5 N 24 33 13 18 1027.2 - 0.0
21/06:00am 16.0 9.5 -2.5 28 7.5 N 22 33 12 18 1026.9 1026.9 0.0

Other Formats:

Comma delimited format used in spreadsheet applications
http://www.bom.gov.au/fwo/IDS60801/IDS60801.94662.axf

JavaScript Object Notation format (JSON) in row-major order
http://www.bom.gov.au/fwo/IDS60801/IDS60801.94662.json